createdAt,value
2019-02-28T00:00:03.158Z,11.18
2019-02-28T00:02:31.430Z,11.82
2019-02-28T00:04:59.715Z,11.80
2019-02-28T00:07:27.991Z,11.02
2019-02-28T00:09:57.381Z,14.07
2019-02-28T00:12:24.606Z,9.95
2019-02-28T00:14:52.890Z,12.18
2019-02-28T00:17:21.182Z,11.15
2019-02-28T00:19:49.471Z,10.43
2019-02-28T00:22:19.253Z,11.75
2019-02-28T00:24:47.642Z,12.80
2019-02-28T00:27:20.975Z,10.60
2019-02-28T00:29:44.160Z,11.87
2019-02-28T00:32:13.271Z,9.30
2019-02-28T00:34:41.544Z,10.30
2019-02-28T00:37:09.935Z,12.05
2019-02-28T00:39:38.302Z,10.65
2019-02-28T00:42:06.583Z,12.40
2019-02-28T00:44:34.832Z,11.17
2019-02-28T00:47:03.942Z,8.83
2019-02-28T00:49:32.219Z,10.32
2019-02-28T00:52:01.573Z,9.27
2019-02-28T00:54:28.767Z,10.25
2019-02-28T00:56:57.047Z,10.40
2019-02-28T00:59:25.318Z,9.02
2019-02-28T01:01:53.603Z,10.50
2019-02-28T01:04:21.849Z,8.82
2019-02-28T01:06:50.120Z,9.90
2019-02-28T01:09:19.219Z,8.90
2019-02-28T01:11:47.520Z,9.63
2019-02-28T01:14:15.774Z,7.87
2019-02-28T01:16:44.074Z,10.18
2019-02-28T01:19:12.454Z,8.57
2019-02-28T01:21:40.751Z,8.60
2019-02-28T01:24:09.103Z,8.43
2019-02-28T01:26:37.498Z,9.48
2019-02-28T01:29:05.870Z,10.70
2019-02-28T01:31:34.157Z,8.98
2019-02-28T01:34:02.423Z,8.05
2019-02-28T01:36:30.700Z,7.75
2019-02-28T01:38:59.058Z,8.73
2019-02-28T01:41:27.347Z,7.60
2019-02-28T01:43:55.711Z,7.97
2019-02-28T01:46:23.987Z,8.88
2019-02-28T01:48:54.553Z,7.97
2019-02-28T01:51:20.550Z,6.68
2019-02-28T01:53:50.487Z,7.00
2019-02-28T01:56:17.195Z,9.73
2019-02-28T01:58:47.594Z,7.10
2019-02-28T02:01:13.947Z,6.50
2019-02-28T02:03:42.235Z,7.27
2019-02-28T02:06:10.499Z,7.43
2019-02-28T02:08:38.759Z,8.03
2019-02-28T02:11:07.875Z,7.27
2019-02-28T02:13:36.835Z,9.52
2019-02-28T02:16:04.529Z,6.97
2019-02-28T02:18:32.773Z,6.90
2019-02-28T02:21:01.794Z,7.93
2019-02-28T02:23:30.175Z,9.23
2019-02-28T02:25:58.445Z,7.87
2019-02-28T02:28:27.826Z,6.03
2019-02-28T02:30:54.963Z,7.68
2019-02-28T02:33:23.986Z,7.35
2019-02-28T02:35:52.259Z,7.32
2019-02-28T02:38:20.539Z,7.32
2019-02-28T02:40:48.811Z,8.35
2019-02-28T02:43:17.101Z,7.00
2019-02-28T02:45:45.360Z,6.30
2019-02-28T02:48:13.641Z,7.95
2019-02-28T02:50:41.900Z,6.75
2019-02-28T02:53:10.171Z,6.30
2019-02-28T02:55:38.439Z,6.90
2019-02-28T02:58:06.739Z,6.53
2019-02-28T03:00:34.983Z,7.17
2019-02-28T03:03:06.136Z,8.63
2019-02-28T03:05:35.951Z,6.97
2019-02-28T03:08:01.130Z,8.00
2019-02-28T03:10:28.926Z,10.68
2019-02-28T03:12:57.199Z,6.43
2019-02-28T03:15:27.176Z,7.67
2019-02-28T03:17:53.879Z,10.07
2019-02-28T03:20:22.248Z,6.95
2019-02-28T03:22:50.524Z,7.25
2019-02-28T03:25:18.821Z,8.25
2019-02-28T03:27:47.095Z,7.50
2019-02-28T03:30:28.422Z,5.90
2019-02-28T03:32:46.592Z,9.82
2019-02-28T03:35:15.592Z,6.28
2019-02-28T03:37:43.899Z,6.07
2019-02-28T03:40:13.657Z,6.12
2019-02-28T03:42:41.976Z,8.45
2019-02-28T03:45:10.932Z,7.25
2019-02-28T03:47:39.329Z,6.00
2019-02-28T03:50:07.585Z,7.53
2019-02-28T03:52:42.082Z,6.25
2019-02-28T03:55:04.742Z,7.22
2019-02-28T03:57:32.407Z,10.05
2019-02-28T04:00:00.691Z,6.82
2019-02-28T04:02:28.960Z,7.55
2019-02-28T04:04:57.244Z,7.62
2019-02-28T04:07:26.231Z,6.40
2019-02-28T04:09:54.508Z,6.22
2019-02-28T04:12:22.779Z,7.37
2019-02-28T04:14:51.054Z,10.07
2019-02-28T04:17:19.318Z,7.25
2019-02-28T04:19:47.607Z,6.72
2019-02-28T04:22:19.494Z,9.63
2019-02-28T04:24:46.344Z,10.15
2019-02-28T04:27:12.423Z,8.30
2019-02-28T04:29:40.697Z,8.10
2019-02-28T04:32:08.966Z,7.95
2019-02-28T04:34:37.371Z,9.02
2019-02-28T04:37:08.565Z,7.93
2019-02-28T04:39:34.008Z,7.55
2019-02-28T04:42:05.001Z,11.02
2019-02-28T04:44:30.553Z,7.93
2019-02-28T04:46:58.839Z,7.37
2019-02-28T04:49:27.220Z,7.78
2019-02-28T04:51:55.754Z,10.00
2019-02-28T04:54:24.625Z,8.48
2019-02-28T04:56:52.464Z,7.32
2019-02-28T04:59:20.731Z,11.12
2019-02-28T05:01:49.016Z,11.85
2019-02-28T05:04:17.379Z,9.68
2019-02-28T05:06:45.760Z,8.77
2019-02-28T05:09:14.487Z,9.50
2019-02-28T05:11:42.412Z,9.77
2019-02-28T05:14:10.691Z,10.50
2019-02-28T05:16:38.934Z,9.47
2019-02-28T05:19:07.952Z,11.53
2019-02-28T05:21:36.236Z,10.25
2019-02-28T05:24:07.679Z,11.60
2019-02-28T05:26:32.985Z,12.15
2019-02-28T05:29:01.237Z,9.70
2019-02-28T05:31:30.248Z,12.13
2019-02-28T05:37:00.592Z,11.10
2019-02-28T05:39:30.964Z,12.20
2019-02-28T05:41:57.255Z,11.02
2019-02-28T05:44:25.513Z,9.87
2019-02-28T05:46:57.595Z,11.70
2019-02-28T05:49:22.583Z,11.35
2019-02-28T05:51:51.068Z,10.73
2019-02-28T05:54:19.346Z,12.57
2019-02-28T05:56:48.055Z,15.27
2019-02-28T05:59:17.128Z,12.75
2019-02-28T06:01:47.055Z,14.32
2019-02-28T06:04:14.547Z,14.82
2019-02-28T06:06:42.863Z,15.60
2019-02-28T06:09:13.686Z,18.37
2019-02-28T06:11:39.539Z,16.65
2019-02-28T06:14:07.906Z,15.73
2019-02-28T06:16:36.253Z,15.52
2019-02-28T06:19:08.118Z,19.20
2019-02-28T06:21:32.835Z,15.20
2019-02-28T06:24:01.127Z,14.70
2019-02-28T06:26:31.918Z,17.75
2019-02-28T06:28:58.575Z,15.55
2019-02-28T06:31:26.976Z,15.07
2019-02-28T06:33:55.328Z,15.63
2019-02-28T06:36:25.730Z,14.20
2019-02-28T06:38:54.554Z,13.80
2019-02-28T06:41:20.364Z,13.33
2019-02-28T06:43:50.243Z,13.38
2019-02-28T06:46:16.951Z,15.02
2019-02-28T06:48:46.008Z,16.42
2019-02-28T06:51:16.824Z,16.08
2019-02-28T06:53:42.755Z,13.45
2019-02-28T06:56:11.019Z,14.73
2019-02-28T06:58:39.300Z,13.10
2019-02-28T07:01:07.600Z,13.02
2019-02-28T07:03:38.811Z,13.10
2019-02-28T07:06:04.241Z,15.90
2019-02-28T07:08:32.520Z,14.80
2019-02-28T07:11:00.943Z,14.05
2019-02-28T07:13:29.197Z,14.02
2019-02-28T07:15:59.106Z,13.57
2019-02-28T07:18:26.522Z,13.93
2019-02-28T07:20:54.925Z,12.02
2019-02-28T07:23:23.204Z,14.38
2019-02-28T07:25:52.444Z,11.60
2019-02-28T07:28:19.908Z,11.85
2019-02-28T07:30:50.305Z,12.77
2019-02-28T07:33:16.491Z,11.73
2019-02-28T07:35:44.784Z,14.02
2019-02-28T07:38:13.058Z,16.42
2019-02-28T07:40:41.479Z,12.37
2019-02-28T07:43:13.041Z,14.40
2019-02-28T07:45:38.795Z,12.00
2019-02-28T07:48:07.048Z,14.10
2019-02-28T07:50:35.333Z,12.30
2019-02-28T07:53:05.554Z,11.05
2019-02-28T07:55:32.006Z,13.02
2019-02-28T07:58:00.376Z,16.05
2019-02-28T08:00:28.664Z,15.13
2019-02-28T08:02:57.035Z,13.88
2019-02-28T08:05:29.689Z,12.30
2019-02-28T08:07:53.639Z,12.77
2019-02-28T08:10:22.707Z,11.45
2019-02-28T08:12:51.051Z,12.80
2019-02-28T08:15:22.730Z,12.45
2019-02-28T08:17:50.363Z,12.82
2019-02-28T08:20:18.643Z,10.67
2019-02-28T08:22:47.024Z,12.70
2019-02-28T08:25:15.404Z,13.30
2019-02-28T08:27:43.779Z,13.00
2019-02-28T08:30:21.070Z,11.23
2019-02-28T08:32:49.457Z,13.23
2019-02-28T08:35:17.710Z,14.37
2019-02-28T08:37:46.010Z,15.65
2019-02-28T08:40:17.069Z,12.88
2019-02-28T08:42:45.340Z,12.50
2019-02-28T08:45:13.637Z,13.88
2019-02-28T08:47:42.706Z,12.63
2019-02-28T08:50:12.744Z,14.03
2019-02-28T08:52:42.241Z,15.82
2019-02-28T08:55:10.175Z,13.20
2019-02-28T08:57:38.476Z,13.60
2019-02-28T09:00:08.291Z,13.77
2019-02-28T09:02:37.372Z,15.73
2019-02-28T09:05:06.735Z,14.13
2019-02-28T09:07:34.118Z,14.97
2019-02-28T09:10:02.437Z,14.70
2019-02-28T09:12:33.277Z,17.67
2019-02-28T09:14:59.133Z,16.40
2019-02-28T09:17:27.542Z,17.42
2019-02-28T09:19:55.817Z,15.35
2019-02-28T09:22:27.478Z,13.95
2019-02-28T09:24:53.271Z,16.50
2019-02-28T09:27:21.580Z,15.05
2019-02-28T09:29:54.520Z,16.02
2019-02-28T09:32:18.199Z,14.85
2019-02-28T09:34:46.774Z,19.10
2019-02-28T09:37:15.075Z,16.62
2019-02-28T09:39:44.138Z,16.55
2019-02-28T09:42:15.705Z,15.68
2019-02-28T09:44:41.510Z,17.85
2019-02-28T09:47:11.768Z,15.77
2019-02-28T09:49:38.969Z,19.02
2019-02-28T09:52:07.406Z,17.73
2019-02-28T09:54:35.681Z,16.50
2019-02-28T09:57:03.966Z,19.80
2019-02-28T09:59:37.345Z,17.92
2019-02-28T10:02:01.635Z,15.07
2019-02-28T10:04:30.491Z,19.98
2019-02-28T10:06:57.328Z,18.05
2019-02-28T10:09:25.633Z,15.93
2019-02-28T10:11:54.696Z,17.45
2019-02-28T10:14:25.752Z,17.00
2019-02-28T10:16:52.632Z,16.92
2019-02-28T10:19:19.656Z,17.87
2019-02-28T10:21:51.863Z,14.37
2019-02-28T10:24:16.990Z,16.80
2019-02-28T10:26:48.175Z,17.83
2019-02-28T10:29:15.118Z,18.27
2019-02-28T10:31:44.155Z,15.63
2019-02-28T10:34:12.463Z,17.08
2019-02-28T10:36:40.824Z,18.30
2019-02-28T10:39:09.750Z,15.23
2019-02-28T10:41:37.571Z,16.73
2019-02-28T10:44:05.955Z,15.33
2019-02-28T10:46:36.027Z,17.77
2019-02-28T10:49:02.619Z,16.52
2019-02-28T10:51:30.892Z,16.33
2019-02-28T10:53:59.192Z,14.45
2019-02-28T10:56:31.747Z,15.10
2019-02-28T10:58:56.640Z,18.83
2019-02-28T11:01:24.926Z,17.58
2019-02-28T11:03:53.234Z,16.87
2019-02-28T11:06:21.534Z,17.90
2019-02-28T11:08:49.831Z,17.55
2019-02-28T11:11:18.134Z,15.32
2019-02-28T11:13:47.219Z,17.73
2019-02-28T11:16:15.496Z,20.98
2019-02-28T11:18:43.858Z,17.77
2019-02-28T11:21:12.151Z,16.55
2019-02-28T11:23:40.508Z,17.62
2019-02-28T11:26:09.528Z,19.95
2019-02-28T11:28:37.891Z,19.52
2019-02-28T11:31:06.183Z,15.95
2019-02-28T11:33:36.460Z,16.60
2019-02-28T11:36:03.515Z,16.90
2019-02-28T11:38:31.891Z,18.65
2019-02-28T11:41:00.211Z,18.12
2019-02-28T11:43:29.273Z,16.83
2019-02-28T11:46:01.020Z,14.82
2019-02-28T11:48:25.893Z,16.33
2019-02-28T11:50:54.249Z,17.05
2019-02-28T11:53:22.580Z,17.63
2019-02-28T11:55:53.360Z,15.90
2019-02-28T11:58:19.944Z,16.10
2019-02-28T12:00:48.315Z,15.55
2019-02-28T12:03:16.620Z,14.82
2019-02-28T12:05:50.083Z,19.23
2019-02-28T12:08:14.420Z,15.90
2019-02-28T12:10:43.489Z,18.58
2019-02-28T12:13:11.780Z,16.83
2019-02-28T12:15:40.940Z,16.27
2019-02-28T12:18:09.324Z,17.98
2019-02-28T12:20:37.695Z,19.67
2019-02-28T12:23:05.992Z,19.40
2019-02-28T12:25:34.271Z,17.70
2019-02-28T12:28:05.699Z,19.25
2019-02-28T12:30:31.002Z,18.83
2019-02-28T12:32:59.299Z,20.95
2019-02-28T12:35:27.683Z,19.60
2019-02-28T12:37:56.753Z,19.50
2019-02-28T12:40:28.758Z,21.63
2019-02-28T12:42:57.836Z,18.20
2019-02-28T12:45:29.152Z,22.70
2019-02-28T12:47:57.545Z,20.23
2019-02-28T12:50:29.283Z,21.33
2019-02-28T12:52:54.201Z,24.08
2019-02-28T12:55:22.580Z,20.37
2019-02-28T12:57:51.700Z,20.83
2019-02-28T13:00:23.297Z,22.27
2019-02-28T13:02:51.099Z,22.30
2019-02-28T13:05:19.393Z,22.50
2019-02-28T13:07:48.597Z,24.37
2019-02-28T13:10:17.690Z,21.98
2019-02-28T13:12:48.928Z,24.37
2019-02-28T13:15:15.037Z,21.48
2019-02-28T13:17:43.319Z,22.50
2019-02-28T13:20:13.181Z,22.83
2019-02-28T13:22:41.471Z,24.15
2019-02-28T13:25:11.770Z,21.23
2019-02-28T13:27:38.071Z,21.50
2019-02-28T13:30:10.640Z,24.98
2019-02-28T13:32:38.218Z,21.63
2019-02-28T13:35:07.491Z,30.23
2019-02-28T13:37:33.906Z,23.90
2019-02-28T13:40:04.349Z,22.67
2019-02-28T13:42:30.488Z,20.67
2019-02-28T13:44:59.545Z,21.12
2019-02-28T13:47:27.892Z,19.37
2019-02-28T13:49:56.163Z,21.23
2019-02-28T13:52:24.468Z,22.00
2019-02-28T13:54:52.766Z,21.75
2019-02-28T13:57:21.065Z,23.55
2019-02-28T13:59:50.216Z,22.55
2019-02-28T14:02:18.544Z,24.20
2019-02-28T14:04:47.405Z,22.65
2019-02-28T14:07:15.667Z,22.00
2019-02-28T14:09:43.951Z,25.55
2019-02-28T14:12:12.312Z,21.80
2019-02-28T14:14:42.415Z,21.50
2019-02-28T14:17:08.927Z,23.85
2019-02-28T14:19:37.223Z,24.10
2019-02-28T14:22:08.521Z,24.63
2019-02-28T14:24:33.989Z,23.15
2019-02-28T14:27:02.378Z,21.50
2019-02-28T14:29:30.654Z,21.35
2019-02-28T14:31:58.958Z,21.27
2019-02-28T14:34:28.012Z,22.87
2019-02-28T14:36:56.328Z,26.58
2019-02-28T14:39:25.489Z,20.85
2019-02-28T14:41:53.775Z,21.12
2019-02-28T14:44:22.079Z,26.70
2019-02-28T14:46:53.301Z,22.00
2019-02-28T14:49:19.007Z,20.80
2019-02-28T14:51:47.302Z,25.35
2019-02-28T14:54:16.373Z,22.83
2019-02-28T14:56:44.655Z,23.70
2019-02-28T14:59:12.966Z,28.17
2019-02-28T15:01:41.307Z,22.93
2019-02-28T15:04:09.608Z,23.40
2019-02-28T15:06:38.708Z,20.62
2019-02-28T15:09:07.048Z,22.55
2019-02-28T15:11:35.424Z,20.67
2019-02-28T15:14:05.658Z,20.83
2019-02-28T15:16:32.806Z,20.12
2019-02-28T15:19:01.108Z,23.73
2019-02-28T15:21:30.200Z,26.08
2019-02-28T15:23:58.472Z,18.87
2019-02-28T15:26:29.545Z,20.95
2019-02-28T15:28:56.663Z,21.25
2019-02-28T15:31:25.729Z,20.75
2019-02-28T15:33:54.036Z,20.12
2019-02-28T15:36:24.353Z,19.07
2019-02-28T15:38:51.367Z,19.35
2019-02-28T15:41:19.631Z,22.37
2019-02-28T15:43:50.307Z,23.12
2019-02-28T15:46:17.000Z,21.42
2019-02-28T15:48:45.378Z,22.10
2019-02-28T15:51:13.677Z,18.23
2019-02-28T15:53:41.983Z,18.42
2019-02-28T15:56:13.245Z,19.02
2019-02-28T15:58:41.429Z,19.35
2019-02-28T16:01:07.268Z,20.10
2019-02-28T16:03:35.575Z,21.10
2019-02-28T16:06:03.852Z,20.03
2019-02-28T16:08:33.015Z,19.52
2019-02-28T16:11:03.272Z,22.40
2019-02-28T16:13:30.380Z,20.20
2019-02-28T16:15:58.678Z,19.90
2019-02-28T16:18:26.938Z,24.20
2019-02-28T16:20:55.321Z,19.35
2019-02-28T16:23:27.587Z,21.08
2019-02-28T16:25:51.976Z,20.83
2019-02-28T16:28:20.278Z,20.35
2019-02-28T16:30:49.354Z,19.45
2019-02-28T16:33:20.900Z,18.92
2019-02-28T16:35:46.750Z,20.62
2019-02-28T16:38:15.111Z,21.85
2019-02-28T16:40:44.180Z,18.92
2019-02-28T16:43:12.472Z,21.00
2019-02-28T16:45:41.971Z,18.53
2019-02-28T16:48:10.102Z,19.62
2019-02-28T16:50:38.397Z,19.20
2019-02-28T16:53:06.696Z,20.23
2019-02-28T16:55:35.068Z,20.65
2019-02-28T16:58:03.451Z,17.85
2019-02-28T17:00:31.759Z,17.85
2019-02-28T17:03:04.061Z,21.65
2019-02-28T17:05:29.276Z,21.60
2019-02-28T17:07:57.691Z,25.08
2019-02-28T17:10:27.768Z,20.40
2019-02-28T17:12:59.596Z,21.35
2019-02-28T17:15:26.124Z,22.10
2019-02-28T17:17:55.197Z,21.70
2019-02-28T17:20:23.504Z,23.00
2019-02-28T17:22:51.780Z,21.90
2019-02-28T17:25:21.884Z,21.52
2019-02-28T17:27:52.017Z,22.40
2019-02-28T17:30:21.743Z,21.45
2019-02-28T17:32:50.773Z,22.30
2019-02-28T17:35:19.072Z,18.48
2019-02-28T17:37:48.132Z,21.42
2019-02-28T17:40:16.432Z,20.80
2019-02-28T17:42:46.399Z,19.35
2019-02-28T17:45:16.210Z,18.83
2019-02-28T17:47:44.857Z,20.83
2019-02-28T17:50:18.487Z,18.50
2019-02-28T17:52:53.299Z,17.58
2019-02-28T17:58:47.024Z,16.23
2019-02-28T18:01:39.084Z,16.45
2019-02-28T18:07:11.593Z,17.90
2019-02-28T18:09:49.484Z,17.50
2019-02-28T18:12:30.257Z,16.55
2019-02-28T18:15:08.958Z,14.98
2019-02-28T18:17:47.478Z,15.55
2019-02-28T18:20:52.332Z,14.97
2019-02-28T18:23:27.915Z,18.05
2019-02-28T18:28:58.119Z,17.70
2019-02-28T18:31:25.548Z,14.40
2019-02-28T18:33:54.578Z,15.40
2019-02-28T18:36:23.631Z,14.87
2019-02-28T18:38:51.923Z,15.68
2019-02-28T18:41:20.288Z,16.35
2019-02-28T18:43:48.588Z,19.10
2019-02-28T18:46:17.696Z,14.32
2019-02-28T18:48:46.771Z,13.45
2019-02-28T18:51:16.681Z,16.43
2019-02-28T18:53:43.355Z,17.62
2019-02-28T18:56:11.642Z,15.02
2019-02-28T18:58:39.946Z,14.95
2019-02-28T19:01:08.253Z,15.95
2019-02-28T19:03:37.322Z,15.85
2019-02-28T19:06:05.620Z,17.77
2019-02-28T19:08:33.934Z,18.90
2019-02-28T19:11:02.247Z,17.73
2019-02-28T19:13:31.348Z,16.80
2019-02-28T19:15:59.727Z,18.75
2019-02-28T19:18:28.107Z,16.42
2019-02-28T19:20:56.504Z,17.87
2019-02-28T19:23:24.784Z,16.70
2019-02-28T19:25:53.846Z,18.17
2019-02-28T19:28:22.147Z,19.58
2019-02-28T19:30:50.512Z,17.70
2019-02-28T19:33:18.892Z,16.70
2019-02-28T19:35:47.256Z,18.77
2019-02-28T19:38:15.635Z,17.67
2019-02-28T19:40:44.015Z,19.48
2019-02-28T19:43:12.387Z,17.55
2019-02-28T19:45:40.766Z,17.52
2019-02-28T19:48:09.085Z,24.45
2019-02-28T19:50:37.435Z,18.27
2019-02-28T19:53:05.800Z,17.27
2019-02-28T19:55:34.092Z,21.95
2019-02-28T19:58:02.483Z,20.20
2019-02-28T20:00:30.748Z,19.08
2019-02-28T20:02:59.062Z,25.02
2019-02-28T20:05:27.318Z,19.83
2019-02-28T20:07:56.379Z,19.77
2019-02-28T20:10:24.690Z,18.30
2019-02-28T20:12:53.747Z,17.58
2019-02-28T20:15:22.053Z,19.10
2019-02-28T20:17:51.228Z,20.73
2019-02-28T20:20:20.275Z,15.38
2019-02-28T20:22:48.568Z,19.40
2019-02-28T20:25:16.923Z,22.17
2019-02-28T20:27:45.266Z,20.65
2019-02-28T20:30:21.469Z,17.77
2019-02-28T20:32:49.779Z,17.87
2019-02-28T20:35:26.138Z,18.60
2019-02-28T20:37:47.143Z,15.55
2019-02-28T20:40:24.435Z,16.45
2019-02-28T20:42:52.728Z,16.17
2019-02-28T20:45:21.791Z,16.75
2019-02-28T20:47:50.084Z,21.62
2019-02-28T20:50:21.228Z,15.90
2019-02-28T20:52:49.499Z,18.07
2019-02-28T20:55:17.878Z,21.67
2019-02-28T20:57:46.175Z,18.23
2019-02-28T21:00:15.256Z,15.93
2019-02-28T21:02:43.563Z,17.83
2019-02-28T21:05:12.608Z,16.67
2019-02-28T21:07:40.903Z,18.30
2019-02-28T21:10:09.205Z,16.80
2019-02-28T21:12:37.508Z,14.23
2019-02-28T21:15:07.758Z,16.92
2019-02-28T21:17:36.131Z,17.52
2019-02-28T21:20:05.931Z,16.80
2019-02-28T21:22:34.331Z,18.17
2019-02-28T21:25:02.641Z,15.88
2019-02-28T21:27:30.908Z,15.67
2019-02-28T21:30:00.201Z,19.83
2019-02-28T21:32:28.450Z,19.35
2019-02-28T21:34:56.759Z,16.80
2019-02-28T21:37:26.232Z,16.85
2019-02-28T21:39:54.634Z,14.05
2019-02-28T21:42:23.750Z,19.30
2019-02-28T21:44:52.084Z,15.70
2019-02-28T21:47:20.498Z,20.33
2019-02-28T21:49:48.721Z,18.00
2019-02-28T21:52:17.113Z,17.05
2019-02-28T21:54:45.412Z,17.73
2019-02-28T21:57:14.477Z,16.12
2019-02-28T21:59:42.779Z,15.35
2019-02-28T22:02:11.843Z,17.67
2019-02-28T22:04:40.615Z,15.55
2019-02-28T22:07:09.023Z,15.68
2019-02-28T22:09:37.408Z,18.25
2019-02-28T22:12:05.683Z,16.40
2019-02-28T22:14:33.997Z,17.00
2019-02-28T22:17:03.064Z,16.98
2019-02-28T22:19:31.330Z,16.67
2019-02-28T22:21:59.695Z,16.02
2019-02-28T22:24:27.996Z,15.27
2019-02-28T22:26:57.164Z,12.67
2019-02-28T22:29:25.544Z,17.50
2019-02-28T22:31:56.286Z,12.55
2019-02-28T22:34:25.132Z,14.43
2019-02-28T22:36:53.419Z,12.20
2019-02-28T22:39:21.809Z,14.18
2019-02-28T22:41:50.196Z,14.95
2019-02-28T22:44:18.580Z,12.63
2019-02-28T22:46:46.888Z,17.65
2019-02-28T22:49:15.156Z,16.10
2019-02-28T22:51:44.227Z,15.27
2019-02-28T22:54:12.506Z,14.57
2019-02-28T22:56:40.799Z,11.50
2019-02-28T22:59:09.857Z,14.10
2019-02-28T23:01:38.155Z,11.85
2019-02-28T23:04:06.518Z,12.02
2019-02-28T23:06:34.897Z,12.05
2019-02-28T23:09:03.181Z,9.25
2019-02-28T23:11:31.480Z,14.23
2019-02-28T23:14:00.544Z,13.80
2019-02-28T23:16:28.915Z,12.63
2019-02-28T23:18:57.291Z,12.93
2019-02-28T23:21:25.577Z,14.38
2019-02-28T23:23:53.943Z,12.90
2019-02-28T23:26:24.028Z,7.55
2019-02-28T23:28:52.342Z,11.55
2019-02-28T23:31:35.464Z,13.53
2019-02-28T23:34:06.683Z,17.20
2019-02-28T23:36:34.958Z,11.70
2019-02-28T23:39:03.257Z,17.98
2019-02-28T23:41:31.548Z,9.68
2019-02-28T23:43:59.848Z,11.07
2019-02-28T23:46:28.120Z,8.67
2019-02-28T23:48:57.181Z,12.37
2019-02-28T23:51:25.468Z,14.75
2019-02-28T23:53:53.767Z,12.98
2019-02-28T23:56:22.864Z,13.15
2019-02-28T23:58:51.103Z,9.95
